sensor_id;sensor_type;location;lat;lon;timestamp;P1;durP1;ratioP1;P2;durP2;ratioP2
4885;SDS011;2457;51.788;6.136;2022-08-11T00:02:05;4.53;;;2.00;;
4885;SDS011;2457;51.788;6.136;2022-08-11T00:04:33;5.07;;;2.60;;
4885;SDS011;2457;51.788;6.136;2022-08-11T00:07:02;3.70;;;1.83;;
4885;SDS011;2457;51.788;6.136;2022-08-11T00:09:36;5.10;;;2.30;;
4885;SDS011;2457;51.788;6.136;2022-08-11T00:11:59;4.13;;;2.13;;
4885;SDS011;2457;51.788;6.136;2022-08-11T00:14:28;3.60;;;1.80;;
4885;SDS011;2457;51.788;6.136;2022-08-11T00:16:56;5.80;;;2.20;;
4885;SDS011;2457;51.788;6.136;2022-08-11T00:19:31;7.07;;;2.50;;
4885;SDS011;2457;51.788;6.136;2022-08-11T00:21:53;4.80;;;2.37;;
4885;SDS011;2457;51.788;6.136;2022-08-11T00:24:21;7.30;;;2.47;;
4885;SDS011;2457;51.788;6.136;2022-08-11T00:26:50;4.40;;;1.97;;
4885;SDS011;2457;51.788;6.136;2022-08-11T00:29:18;5.90;;;1.63;;
4885;SDS011;2457;51.788;6.136;2022-08-11T00:31:47;4.43;;;2.33;;
4885;SDS011;2457;51.788;6.136;2022-08-11T00:34:14;5.37;;;2.57;;
4885;SDS011;2457;51.788;6.136;2022-08-11T00:36:50;10.10;;;2.80;;
4885;SDS011;2457;51.788;6.136;2022-08-11T00:39:16;5.00;;;2.03;;
4885;SDS011;2457;51.788;6.136;2022-08-11T00:41:46;7.47;;;2.20;;
4885;SDS011;2457;51.788;6.136;2022-08-11T00:49:15;5.80;;;2.70;;
4885;SDS011;2457;51.788;6.136;2022-08-11T00:54:30;5.03;;;2.07;;
4885;SDS011;2457;51.788;6.136;2022-08-11T01:05:10;4.67;;;2.00;;
4885;SDS011;2457;51.788;6.136;2022-08-11T01:13:05;4.17;;;2.10;;
4885;SDS011;2457;51.788;6.136;2022-08-11T01:15:44;4.93;;;2.60;;
4885;SDS011;2457;51.788;6.136;2022-08-11T01:39:27;6.53;;;2.50;;
4885;SDS011;2457;51.788;6.136;2022-08-11T01:41:54;5.00;;;2.20;;
4885;SDS011;2457;51.788;6.136;2022-08-11T01:47:21;9.23;;;3.13;;
4885;SDS011;2457;51.788;6.136;2022-08-11T01:49:56;5.70;;;2.70;;
4885;SDS011;2457;51.788;6.136;2022-08-11T01:52:25;6.20;;;2.63;;
4885;SDS011;2457;51.788;6.136;2022-08-11T01:55:00;4.50;;;2.50;;
4885;SDS011;2457;51.788;6.136;2022-08-11T01:57:35;5.03;;;2.30;;
4885;SDS011;2457;51.788;6.136;2022-08-11T02:00:06;5.20;;;2.10;;
4885;SDS011;2457;51.788;6.136;2022-08-11T02:02:38;6.17;;;2.40;;
4885;SDS011;2457;51.788;6.136;2022-08-11T02:10:31;8.83;;;2.60;;
4885;SDS011;2457;51.788;6.136;2022-08-11T02:13:23;4.57;;;2.27;;
4885;SDS011;2457;51.788;6.136;2022-08-11T02:15:54;5.80;;;2.10;;
4885;SDS011;2457;51.788;6.136;2022-08-11T02:18:23;8.73;;;2.63;;
4885;SDS011;2457;51.788;6.136;2022-08-11T02:20:54;4.73;;;2.60;;
4885;SDS011;2457;51.788;6.136;2022-08-11T02:26:23;4.40;;;2.47;;
4885;SDS011;2457;51.788;6.136;2022-08-11T02:37:19;6.20;;;2.70;;
4885;SDS011;2457;51.788;6.136;2022-08-11T02:40:13;6.93;;;2.93;;
4885;SDS011;2457;51.788;6.136;2022-08-11T02:42:34;5.07;;;2.63;;
4885;SDS011;2457;51.788;6.136;2022-08-11T02:48:02;6.67;;;2.80;;
4885;SDS011;2457;51.788;6.136;2022-08-11T02:51:16;6.80;;;2.80;;
4885;SDS011;2457;51.788;6.136;2022-08-11T02:53:43;5.17;;;2.67;;
4885;SDS011;2457;51.788;6.136;2022-08-11T02:56:09;5.60;;;2.20;;
4885;SDS011;2457;51.788;6.136;2022-08-11T03:03:43;4.77;;;2.83;;
4885;SDS011;2457;51.788;6.136;2022-08-11T03:06:16;7.10;;;2.53;;
4885;SDS011;2457;51.788;6.136;2022-08-11T03:08:48;4.90;;;2.50;;
4885;SDS011;2457;51.788;6.136;2022-08-11T03:14:14;6.13;;;2.83;;
4885;SDS011;2457;51.788;6.136;2022-08-11T03:16:58;5.30;;;3.20;;
4885;SDS011;2457;51.788;6.136;2022-08-11T03:19:27;4.47;;;2.50;;
4885;SDS011;2457;51.788;6.136;2022-08-11T03:27:26;4.80;;;2.27;;
4885;SDS011;2457;51.788;6.136;2022-08-11T03:32:39;5.73;;;2.67;;
4885;SDS011;2457;51.788;6.136;2022-08-11T03:35:01;9.03;;;3.10;;
4885;SDS011;2457;51.788;6.136;2022-08-11T03:37:40;6.50;;;3.50;;
4885;SDS011;2457;51.788;6.136;2022-08-11T03:45:57;6.10;;;3.17;;
4885;SDS011;2457;51.788;6.136;2022-08-11T03:48:36;5.77;;;2.83;;
4885;SDS011;2457;51.788;6.136;2022-08-11T04:04:08;5.50;;;3.00;;
4885;SDS011;2457;51.788;6.136;2022-08-11T04:09:46;4.70;;;2.70;;
4885;SDS011;2457;51.788;6.136;2022-08-11T04:11:59;6.30;;;3.10;;
4885;SDS011;2457;51.788;6.136;2022-08-11T04:14:28;4.90;;;2.53;;
4885;SDS011;2457;51.788;6.136;2022-08-11T04:25:42;5.60;;;2.63;;
4885;SDS011;2457;51.788;6.136;2022-08-11T04:30:55;5.73;;;3.10;;
4885;SDS011;2457;51.788;6.136;2022-08-11T04:33:29;5.10;;;2.83;;
4885;SDS011;2457;51.788;6.136;2022-08-11T04:38:44;5.07;;;2.37;;
4885;SDS011;2457;51.788;6.136;2022-08-11T04:44:06;6.93;;;3.07;;
4885;SDS011;2457;51.788;6.136;2022-08-11T04:46:32;7.40;;;3.30;;
4885;SDS011;2457;51.788;6.136;2022-08-11T04:52:06;6.23;;;3.03;;
4885;SDS011;2457;51.788;6.136;2022-08-11T04:57:52;6.23;;;2.90;;
4885;SDS011;2457;51.788;6.136;2022-08-11T05:11:34;9.97;;;3.60;;
4885;SDS011;2457;51.788;6.136;2022-08-11T05:16:58;6.73;;;3.50;;
4885;SDS011;2457;51.788;6.136;2022-08-11T05:19:45;6.27;;;3.23;;
4885;SDS011;2457;51.788;6.136;2022-08-11T05:22:32;6.73;;;3.50;;
4885;SDS011;2457;51.788;6.136;2022-08-11T05:25:19;8.07;;;3.73;;
4885;SDS011;2457;51.788;6.136;2022-08-11T05:28:12;5.77;;;3.03;;
4885;SDS011;2457;51.788;6.136;2022-08-11T05:31:24;5.60;;;3.07;;
4885;SDS011;2457;51.788;6.136;2022-08-11T05:33:46;5.90;;;3.47;;
4885;SDS011;2457;51.788;6.136;2022-08-11T05:41:47;8.23;;;3.47;;
4885;SDS011;2457;51.788;6.136;2022-08-11T05:44:34;7.20;;;3.30;;
4885;SDS011;2457;51.788;6.136;2022-08-11T05:47:22;5.23;;;3.10;;
4885;SDS011;2457;51.788;6.136;2022-08-11T05:50:11;6.03;;;3.00;;
4885;SDS011;2457;51.788;6.136;2022-08-11T05:52:58;10.60;;;3.30;;
4885;SDS011;2457;51.788;6.136;2022-08-11T05:55:44;10.40;;;3.60;;
4885;SDS011;2457;51.788;6.136;2022-08-11T05:58:39;6.60;;;3.70;;
4885;SDS011;2457;51.788;6.136;2022-08-11T06:01:06;10.47;;;4.23;;
4885;SDS011;2457;51.788;6.136;2022-08-11T06:03:34;5.93;;;2.87;;
4885;SDS011;2457;51.788;6.136;2022-08-11T06:06:07;7.03;;;3.50;;
4885;SDS011;2457;51.788;6.136;2022-08-11T06:08:32;9.33;;;3.60;;
4885;SDS011;2457;51.788;6.136;2022-08-11T06:11:03;5.30;;;2.90;;
4885;SDS011;2457;51.788;6.136;2022-08-11T06:13:31;6.63;;;3.83;;
4885;SDS011;2457;51.788;6.136;2022-08-11T06:15:59;7.07;;;3.33;;
4885;SDS011;2457;51.788;6.136;2022-08-11T06:18:26;7.50;;;3.40;;
4885;SDS011;2457;51.788;6.136;2022-08-11T06:20:54;10.60;;;3.60;;
4885;SDS011;2457;51.788;6.136;2022-08-11T06:23:24;7.90;;;3.57;;
4885;SDS011;2457;51.788;6.136;2022-08-11T06:25:52;6.67;;;3.63;;
4885;SDS011;2457;51.788;6.136;2022-08-11T06:28:27;6.60;;;3.37;;
4885;SDS011;2457;51.788;6.136;2022-08-11T06:30:49;6.73;;;3.27;;
4885;SDS011;2457;51.788;6.136;2022-08-11T06:33:44;11.83;;;3.57;;
4885;SDS011;2457;51.788;6.136;2022-08-11T06:36:53;9.20;;;3.60;;
4885;SDS011;2457;51.788;6.136;2022-08-11T06:38:57;7.63;;;4.30;;
4885;SDS011;2457;51.788;6.136;2022-08-11T06:41:25;5.40;;;3.30;;
4885;SDS011;2457;51.788;6.136;2022-08-11T06:46:29;6.80;;;2.97;;
4885;SDS011;2457;51.788;6.136;2022-08-11T06:48:57;7.33;;;3.63;;
4885;SDS011;2457;51.788;6.136;2022-08-11T06:51:25;7.03;;;3.50;;
4885;SDS011;2457;51.788;6.136;2022-08-11T06:53:54;5.17;;;2.87;;
4885;SDS011;2457;51.788;6.136;2022-08-11T06:56:27;5.47;;;3.10;;
4885;SDS011;2457;51.788;6.136;2022-08-11T06:59:12;7.20;;;3.77;;
4885;SDS011;2457;51.788;6.136;2022-08-11T07:04:33;4.83;;;2.90;;
4885;SDS011;2457;51.788;6.136;2022-08-11T07:12:51;5.70;;;2.77;;
4885;SDS011;2457;51.788;6.136;2022-08-11T07:15:38;8.20;;;2.90;;
4885;SDS011;2457;51.788;6.136;2022-08-11T07:18:16;5.70;;;2.60;;
4885;SDS011;2457;51.788;6.136;2022-08-11T07:21:05;5.47;;;2.70;;
4885;SDS011;2457;51.788;6.136;2022-08-11T07:23:42;8.30;;;2.70;;
4885;SDS011;2457;51.788;6.136;2022-08-11T07:26:28;8.07;;;2.83;;
4885;SDS011;2457;51.788;6.136;2022-08-11T07:29:14;7.73;;;2.67;;
4885;SDS011;2457;51.788;6.136;2022-08-11T07:31:51;8.13;;;2.20;;
4885;SDS011;2457;51.788;6.136;2022-08-11T07:34:20;7.33;;;2.53;;
4885;SDS011;2457;51.788;6.136;2022-08-11T07:36:49;5.70;;;2.80;;
4885;SDS011;2457;51.788;6.136;2022-08-11T07:39:18;7.73;;;2.93;;
4885;SDS011;2457;51.788;6.136;2022-08-11T07:41:46;5.60;;;2.77;;
4885;SDS011;2457;51.788;6.136;2022-08-11T07:44:14;5.43;;;2.67;;
4885;SDS011;2457;51.788;6.136;2022-08-11T07:46:43;7.50;;;2.73;;
4885;SDS011;2457;51.788;6.136;2022-08-11T07:49:30;9.27;;;3.03;;
4885;SDS011;2457;51.788;6.136;2022-08-11T07:52:15;5.77;;;2.60;;
4885;SDS011;2457;51.788;6.136;2022-08-11T07:54:59;4.80;;;2.07;;
4885;SDS011;2457;51.788;6.136;2022-08-11T07:57:24;7.27;;;2.63;;
4885;SDS011;2457;51.788;6.136;2022-08-11T08:00:10;8.60;;;2.63;;
4885;SDS011;2457;51.788;6.136;2022-08-11T08:02:57;5.97;;;2.50;;
4885;SDS011;2457;51.788;6.136;2022-08-11T08:05:44;6.33;;;2.23;;
4885;SDS011;2457;51.788;6.136;2022-08-11T08:08:30;5.20;;;2.60;;
4885;SDS011;2457;51.788;6.136;2022-08-11T08:11:15;5.30;;;2.10;;
4885;SDS011;2457;51.788;6.136;2022-08-11T08:14:02;5.67;;;2.47;;
4885;SDS011;2457;51.788;6.136;2022-08-11T08:16:48;8.40;;;2.60;;
4885;SDS011;2457;51.788;6.136;2022-08-11T08:19:34;4.57;;;2.10;;
4885;SDS011;2457;51.788;6.136;2022-08-11T08:22:02;6.90;;;2.80;;
4885;SDS011;2457;51.788;6.136;2022-08-11T08:24:29;9.20;;;2.60;;
4885;SDS011;2457;51.788;6.136;2022-08-11T08:26:58;7.00;;;2.57;;
4885;SDS011;2457;51.788;6.136;2022-08-11T08:29:26;4.30;;;2.07;;
4885;SDS011;2457;51.788;6.136;2022-08-11T08:32:12;8.07;;;2.50;;
4885;SDS011;2457;51.788;6.136;2022-08-11T08:34:41;6.63;;;2.50;;
4885;SDS011;2457;51.788;6.136;2022-08-11T08:37:09;4.60;;;2.20;;
4885;SDS011;2457;51.788;6.136;2022-08-11T08:39:37;4.07;;;2.00;;
4885;SDS011;2457;51.788;6.136;2022-08-11T08:42:09;5.07;;;2.40;;
4885;SDS011;2457;51.788;6.136;2022-08-11T08:44:33;5.90;;;2.50;;
4885;SDS011;2457;51.788;6.136;2022-08-11T08:47:02;4.40;;;2.20;;
4885;SDS011;2457;51.788;6.136;2022-08-11T08:49:32;6.03;;;2.20;;
4885;SDS011;2457;51.788;6.136;2022-08-11T08:52:00;4.20;;;2.20;;
4885;SDS011;2457;51.788;6.136;2022-08-11T08:54:33;4.27;;;2.37;;
4885;SDS011;2457;51.788;6.136;2022-08-11T08:57:07;5.17;;;2.00;;
4885;SDS011;2457;51.788;6.136;2022-08-11T08:59:31;4.37;;;1.90;;
4885;SDS011;2457;51.788;6.136;2022-08-11T09:02:00;4.17;;;1.90;;
4885;SDS011;2457;51.788;6.136;2022-08-11T09:04:28;11.57;;;2.50;;
4885;SDS011;2457;51.788;6.136;2022-08-11T09:06:57;8.20;;;2.30;;
4885;SDS011;2457;51.788;6.136;2022-08-11T09:09:25;5.40;;;2.27;;
4885;SDS011;2457;51.788;6.136;2022-08-11T09:11:53;5.27;;;2.40;;
4885;SDS011;2457;51.788;6.136;2022-08-11T09:14:27;3.90;;;2.07;;
4885;SDS011;2457;51.788;6.136;2022-08-11T09:16:56;3.80;;;1.97;;
4885;SDS011;2457;51.788;6.136;2022-08-11T09:19:24;12.33;;;2.23;;
4885;SDS011;2457;51.788;6.136;2022-08-11T09:21:52;5.00;;;2.23;;
4885;SDS011;2457;51.788;6.136;2022-08-11T09:24:37;5.33;;;1.87;;
4885;SDS011;2457;51.788;6.136;2022-08-11T09:27:24;8.10;;;1.83;;
4885;SDS011;2457;51.788;6.136;2022-08-11T09:29:52;5.13;;;2.20;;
4885;SDS011;2457;51.788;6.136;2022-08-11T09:32:20;4.43;;;2.00;;
4885;SDS011;2457;51.788;6.136;2022-08-11T09:34:48;4.70;;;1.80;;
4885;SDS011;2457;51.788;6.136;2022-08-11T09:37:17;3.93;;;1.73;;
4885;SDS011;2457;51.788;6.136;2022-08-11T09:40:04;3.90;;;1.87;;
4885;SDS011;2457;51.788;6.136;2022-08-11T09:42:50;5.50;;;2.40;;
4885;SDS011;2457;51.788;6.136;2022-08-11T09:45:36;4.17;;;1.60;;
4885;SDS011;2457;51.788;6.136;2022-08-11T09:48:04;5.73;;;2.20;;
4885;SDS011;2457;51.788;6.136;2022-08-11T09:50:33;6.33;;;2.23;;
4885;SDS011;2457;51.788;6.136;2022-08-11T09:53:00;3.77;;;1.83;;
4885;SDS011;2457;51.788;6.136;2022-08-11T09:55:29;4.10;;;1.90;;
4885;SDS011;2457;51.788;6.136;2022-08-11T09:57:56;4.53;;;2.00;;
4885;SDS011;2457;51.788;6.136;2022-08-11T10:00:40;4.87;;;2.37;;
4885;SDS011;2457;51.788;6.136;2022-08-11T10:05:47;4.10;;;1.80;;
4885;SDS011;2457;51.788;6.136;2022-08-11T10:08:28;3.80;;;1.70;;
4885;SDS011;2457;51.788;6.136;2022-08-11T10:10:58;6.07;;;2.40;;
4885;SDS011;2457;51.788;6.136;2022-08-11T10:13:28;8.23;;;2.43;;
4885;SDS011;2457;51.788;6.136;2022-08-11T10:16:02;6.07;;;2.20;;
4885;SDS011;2457;51.788;6.136;2022-08-11T10:18:34;4.53;;;1.93;;
4885;SDS011;2457;51.788;6.136;2022-08-11T10:21:09;3.87;;;2.03;;
4885;SDS011;2457;51.788;6.136;2022-08-11T10:23:37;4.10;;;2.10;;
4885;SDS011;2457;51.788;6.136;2022-08-11T10:26:23;8.57;;;2.97;;
4885;SDS011;2457;51.788;6.136;2022-08-11T10:29:10;5.17;;;1.93;;
4885;SDS011;2457;51.788;6.136;2022-08-11T10:31:56;3.77;;;1.70;;
4885;SDS011;2457;51.788;6.136;2022-08-11T10:34:46;4.83;;;2.13;;
4885;SDS011;2457;51.788;6.136;2022-08-11T10:37:14;5.93;;;2.10;;
4885;SDS011;2457;51.788;6.136;2022-08-11T10:39:41;7.03;;;2.27;;
4885;SDS011;2457;51.788;6.136;2022-08-11T10:42:14;4.20;;;2.07;;
4885;SDS011;2457;51.788;6.136;2022-08-11T10:44:53;4.63;;;1.77;;
4885;SDS011;2457;51.788;6.136;2022-08-11T10:47:21;4.63;;;1.83;;
4885;SDS011;2457;51.788;6.136;2022-08-11T10:50:15;4.40;;;1.93;;
4885;SDS011;2457;51.788;6.136;2022-08-11T10:52:50;5.10;;;2.00;;
4885;SDS011;2457;51.788;6.136;2022-08-11T10:55:35;4.70;;;1.93;;
4885;SDS011;2457;51.788;6.136;2022-08-11T10:58:21;6.33;;;2.57;;
4885;SDS011;2457;51.788;6.136;2022-08-11T11:01:07;4.90;;;2.17;;
4885;SDS011;2457;51.788;6.136;2022-08-11T11:03:35;8.37;;;1.90;;
4885;SDS011;2457;51.788;6.136;2022-08-11T11:08:56;4.73;;;2.20;;
4885;SDS011;2457;51.788;6.136;2022-08-11T11:11:22;9.03;;;2.23;;
4885;SDS011;2457;51.788;6.136;2022-08-11T11:13:51;5.87;;;1.87;;
4885;SDS011;2457;51.788;6.136;2022-08-11T11:16:37;4.00;;;1.60;;
4885;SDS011;2457;51.788;6.136;2022-08-11T11:19:24;5.43;;;2.03;;
4885;SDS011;2457;51.788;6.136;2022-08-11T11:21:52;7.03;;;1.70;;
4885;SDS011;2457;51.788;6.136;2022-08-11T11:27:00;4.13;;;1.83;;
4885;SDS011;2457;51.788;6.136;2022-08-11T11:29:30;11.73;;;2.50;;
4885;SDS011;2457;51.788;6.136;2022-08-11T11:37:16;5.20;;;1.87;;
4885;SDS011;2457;51.788;6.136;2022-08-11T11:39:44;4.43;;;2.03;;
4885;SDS011;2457;51.788;6.136;2022-08-11T11:42:12;5.53;;;2.00;;
4885;SDS011;2457;51.788;6.136;2022-08-11T11:44:41;4.13;;;1.73;;
4885;SDS011;2457;51.788;6.136;2022-08-11T11:47:09;3.67;;;1.63;;
4885;SDS011;2457;51.788;6.136;2022-08-11T11:49:37;3.70;;;1.67;;
4885;SDS011;2457;51.788;6.136;2022-08-11T11:52:06;3.80;;;1.90;;
4885;SDS011;2457;51.788;6.136;2022-08-11T11:54:34;5.20;;;1.87;;
4885;SDS011;2457;51.788;6.136;2022-08-11T11:57:06;3.97;;;1.80;;
4885;SDS011;2457;51.788;6.136;2022-08-11T11:59:52;3.30;;;1.40;;
4885;SDS011;2457;51.788;6.136;2022-08-11T12:02:39;5.93;;;2.27;;
4885;SDS011;2457;51.788;6.136;2022-08-11T12:05:06;6.60;;;1.93;;
4885;SDS011;2457;51.788;6.136;2022-08-11T12:07:34;7.10;;;2.10;;
4885;SDS011;2457;51.788;6.136;2022-08-11T12:10:20;4.73;;;1.73;;
4885;SDS011;2457;51.788;6.136;2022-08-11T12:12:47;6.13;;;1.83;;
4885;SDS011;2457;51.788;6.136;2022-08-11T12:15:33;3.70;;;1.57;;
4885;SDS011;2457;51.788;6.136;2022-08-11T12:18:01;3.80;;;1.77;;
4885;SDS011;2457;51.788;6.136;2022-08-11T12:20:29;3.50;;;1.63;;
4885;SDS011;2457;51.788;6.136;2022-08-11T12:22:57;3.30;;;1.50;;
4885;SDS011;2457;51.788;6.136;2022-08-11T12:25:43;4.00;;;1.87;;
4885;SDS011;2457;51.788;6.136;2022-08-11T12:28:29;5.00;;;1.70;;
4885;SDS011;2457;51.788;6.136;2022-08-11T12:30:57;5.23;;;1.77;;
4885;SDS011;2457;51.788;6.136;2022-08-11T12:33:24;6.17;;;1.90;;
4885;SDS011;2457;51.788;6.136;2022-08-11T12:35:55;4.00;;;1.70;;
4885;SDS011;2457;51.788;6.136;2022-08-11T12:38:20;5.10;;;1.53;;
4885;SDS011;2457;51.788;6.136;2022-08-11T12:40:48;12.03;;;2.00;;
4885;SDS011;2457;51.788;6.136;2022-08-11T12:43:25;3.87;;;1.70;;
4885;SDS011;2457;51.788;6.136;2022-08-11T12:46:16;3.90;;;1.50;;
4885;SDS011;2457;51.788;6.136;2022-08-11T12:48:47;7.50;;;2.47;;
4885;SDS011;2457;51.788;6.136;2022-08-11T12:51:34;4.03;;;1.80;;
4885;SDS011;2457;51.788;6.136;2022-08-11T12:54:20;4.87;;;1.97;;
4885;SDS011;2457;51.788;6.136;2022-08-11T12:56:46;4.50;;;1.77;;
4885;SDS011;2457;51.788;6.136;2022-08-11T12:59:31;3.63;;;1.90;;
4885;SDS011;2457;51.788;6.136;2022-08-11T13:02:18;4.57;;;1.77;;
4885;SDS011;2457;51.788;6.136;2022-08-11T13:05:05;4.00;;;2.03;;
4885;SDS011;2457;51.788;6.136;2022-08-11T13:07:33;5.03;;;1.53;;
4885;SDS011;2457;51.788;6.136;2022-08-11T13:10:02;4.10;;;1.80;;
4885;SDS011;2457;51.788;6.136;2022-08-11T13:12:29;4.30;;;1.90;;
4885;SDS011;2457;51.788;6.136;2022-08-11T13:15:14;3.87;;;1.80;;
4885;SDS011;2457;51.788;6.136;2022-08-11T13:17:42;6.23;;;2.03;;
4885;SDS011;2457;51.788;6.136;2022-08-11T13:20:10;6.83;;;1.80;;
4885;SDS011;2457;51.788;6.136;2022-08-11T13:22:38;4.57;;;1.97;;
4885;SDS011;2457;51.788;6.136;2022-08-11T13:25:08;4.30;;;1.50;;
4885;SDS011;2457;51.788;6.136;2022-08-11T13:27:35;4.13;;;1.70;;
4885;SDS011;2457;51.788;6.136;2022-08-11T13:30:03;8.40;;;1.80;;
4885;SDS011;2457;51.788;6.136;2022-08-11T13:32:49;7.33;;;1.40;;
4885;SDS011;2457;51.788;6.136;2022-08-11T13:35:17;3.80;;;1.60;;
4885;SDS011;2457;51.788;6.136;2022-08-11T13:37:46;4.20;;;1.67;;
4885;SDS011;2457;51.788;6.136;2022-08-11T13:40:15;3.40;;;1.43;;
4885;SDS011;2457;51.788;6.136;2022-08-11T13:42:44;4.70;;;1.70;;
4885;SDS011;2457;51.788;6.136;2022-08-11T13:45:11;4.80;;;1.70;;
4885;SDS011;2457;51.788;6.136;2022-08-11T13:47:39;4.37;;;1.80;;
4885;SDS011;2457;51.788;6.136;2022-08-11T13:50:07;3.90;;;1.50;;
4885;SDS011;2457;51.788;6.136;2022-08-11T13:52:35;6.83;;;1.90;;
4885;SDS011;2457;51.788;6.136;2022-08-11T13:55:05;3.13;;;1.37;;
4885;SDS011;2457;51.788;6.136;2022-08-11T13:57:33;4.27;;;1.90;;
4885;SDS011;2457;51.788;6.136;2022-08-11T14:00:02;9.30;;;1.57;;
4885;SDS011;2457;51.788;6.136;2022-08-11T14:02:41;3.60;;;1.60;;
4885;SDS011;2457;51.788;6.136;2022-08-11T14:05:07;14.63;;;1.70;;
4885;SDS011;2457;51.788;6.136;2022-08-11T14:07:35;3.67;;;1.53;;
4885;SDS011;2457;51.788;6.136;2022-08-11T14:10:02;4.13;;;1.50;;
4885;SDS011;2457;51.788;6.136;2022-08-11T14:12:31;4.07;;;2.07;;
4885;SDS011;2457;51.788;6.136;2022-08-11T14:15:21;4.60;;;1.70;;
4885;SDS011;2457;51.788;6.136;2022-08-11T14:17:56;5.93;;;1.67;;
4885;SDS011;2457;51.788;6.136;2022-08-11T14:20:19;3.83;;;1.87;;
4885;SDS011;2457;51.788;6.136;2022-08-11T14:22:47;3.70;;;1.70;;
4885;SDS011;2457;51.788;6.136;2022-08-11T14:25:15;4.13;;;1.90;;
4885;SDS011;2457;51.788;6.136;2022-08-11T14:27:43;3.97;;;1.70;;
4885;SDS011;2457;51.788;6.136;2022-08-11T14:30:12;3.60;;;1.37;;
4885;SDS011;2457;51.788;6.136;2022-08-11T14:32:41;6.00;;;1.80;;
4885;SDS011;2457;51.788;6.136;2022-08-11T14:35:10;4.33;;;1.73;;
4885;SDS011;2457;51.788;6.136;2022-08-11T14:37:37;3.67;;;1.77;;
4885;SDS011;2457;51.788;6.136;2022-08-11T14:40:06;4.00;;;1.70;;
4885;SDS011;2457;51.788;6.136;2022-08-11T14:42:35;4.60;;;1.80;;
4885;SDS011;2457;51.788;6.136;2022-08-11T14:45:21;3.87;;;2.00;;
4885;SDS011;2457;51.788;6.136;2022-08-11T14:48:08;4.20;;;1.67;;
4885;SDS011;2457;51.788;6.136;2022-08-11T14:50:35;3.90;;;1.70;;
4885;SDS011;2457;51.788;6.136;2022-08-11T14:53:10;5.20;;;1.87;;
4885;SDS011;2457;51.788;6.136;2022-08-11T14:55:35;3.80;;;1.70;;
4885;SDS011;2457;51.788;6.136;2022-08-11T14:58:23;8.03;;;1.70;;
4885;SDS011;2457;51.788;6.136;2022-08-11T15:00:51;6.53;;;1.63;;
4885;SDS011;2457;51.788;6.136;2022-08-11T15:03:19;5.33;;;1.57;;
4885;SDS011;2457;51.788;6.136;2022-08-11T15:05:49;4.07;;;1.50;;
4885;SDS011;2457;51.788;6.136;2022-08-11T15:08:17;3.93;;;2.43;;
4885;SDS011;2457;51.788;6.136;2022-08-11T15:10:45;3.60;;;1.43;;
4885;SDS011;2457;51.788;6.136;2022-08-11T15:13:17;4.40;;;2.33;;
4885;SDS011;2457;51.788;6.136;2022-08-11T15:15:44;3.20;;;1.50;;
4885;SDS011;2457;51.788;6.136;2022-08-11T15:18:30;3.50;;;1.43;;
4885;SDS011;2457;51.788;6.136;2022-08-11T15:20:58;4.83;;;1.70;;
4885;SDS011;2457;51.788;6.136;2022-08-11T15:23:44;3.70;;;1.50;;
4885;SDS011;2457;51.788;6.136;2022-08-11T15:26:31;3.80;;;1.70;;
4885;SDS011;2457;51.788;6.136;2022-08-11T15:29:19;3.50;;;1.63;;
4885;SDS011;2457;51.788;6.136;2022-08-11T15:32:03;4.27;;;1.87;;
4885;SDS011;2457;51.788;6.136;2022-08-11T15:34:53;4.20;;;1.70;;
4885;SDS011;2457;51.788;6.136;2022-08-11T15:37:36;4.13;;;1.73;;
4885;SDS011;2457;51.788;6.136;2022-08-11T15:40:08;4.00;;;1.70;;
4885;SDS011;2457;51.788;6.136;2022-08-11T15:45:41;8.33;;;1.67;;
4885;SDS011;2457;51.788;6.136;2022-08-11T15:48:17;3.47;;;1.60;;
4885;SDS011;2457;51.788;6.136;2022-08-11T15:50:47;3.37;;;1.80;;
4885;SDS011;2457;51.788;6.136;2022-08-11T15:53:19;3.40;;;1.40;;
4885;SDS011;2457;51.788;6.136;2022-08-11T15:55:42;3.63;;;1.50;;
4885;SDS011;2457;51.788;6.136;2022-08-11T15:58:11;9.40;;;1.87;;
4885;SDS011;2457;51.788;6.136;2022-08-11T16:00:57;4.83;;;2.10;;
4885;SDS011;2457;51.788;6.136;2022-08-11T16:03:50;7.27;;;1.97;;
4885;SDS011;2457;51.788;6.136;2022-08-11T16:06:38;5.13;;;2.13;;
4885;SDS011;2457;51.788;6.136;2022-08-11T16:09:05;5.23;;;2.00;;
4885;SDS011;2457;51.788;6.136;2022-08-11T16:11:33;3.47;;;1.60;;
4885;SDS011;2457;51.788;6.136;2022-08-11T16:14:03;4.80;;;1.70;;
4885;SDS011;2457;51.788;6.136;2022-08-11T16:16:50;4.43;;;1.40;;
4885;SDS011;2457;51.788;6.136;2022-08-11T16:19:18;5.13;;;1.40;;
4885;SDS011;2457;51.788;6.136;2022-08-11T16:21:46;7.47;;;2.20;;
4885;SDS011;2457;51.788;6.136;2022-08-11T16:24:16;3.30;;;1.50;;
4885;SDS011;2457;51.788;6.136;2022-08-11T16:26:44;6.60;;;1.60;;
4885;SDS011;2457;51.788;6.136;2022-08-11T16:29:12;3.97;;;1.83;;
4885;SDS011;2457;51.788;6.136;2022-08-11T16:31:40;3.53;;;1.67;;
4885;SDS011;2457;51.788;6.136;2022-08-11T16:34:08;4.20;;;1.80;;
4885;SDS011;2457;51.788;6.136;2022-08-11T16:36:37;3.70;;;1.53;;
4885;SDS011;2457;51.788;6.136;2022-08-11T16:39:23;3.40;;;1.50;;
4885;SDS011;2457;51.788;6.136;2022-08-11T16:41:51;3.97;;;1.33;;
4885;SDS011;2457;51.788;6.136;2022-08-11T16:44:37;3.10;;;1.50;;
4885;SDS011;2457;51.788;6.136;2022-08-11T16:47:22;4.33;;;2.00;;
4885;SDS011;2457;51.788;6.136;2022-08-11T16:49:51;3.50;;;1.37;;
4885;SDS011;2457;51.788;6.136;2022-08-11T16:52:22;5.20;;;1.60;;
4885;SDS011;2457;51.788;6.136;2022-08-11T16:54:50;4.80;;;1.80;;
4885;SDS011;2457;51.788;6.136;2022-08-11T16:57:19;3.53;;;1.63;;
4885;SDS011;2457;51.788;6.136;2022-08-11T17:00:05;4.23;;;1.90;;
4885;SDS011;2457;51.788;6.136;2022-08-11T17:02:36;4.63;;;2.00;;
4885;SDS011;2457;51.788;6.136;2022-08-11T17:05:23;6.40;;;1.87;;
4885;SDS011;2457;51.788;6.136;2022-08-11T17:08:08;3.80;;;1.60;;
4885;SDS011;2457;51.788;6.136;2022-08-11T17:13:49;3.57;;;1.40;;
4885;SDS011;2457;51.788;6.136;2022-08-11T17:16:20;4.10;;;1.67;;
4885;SDS011;2457;51.788;6.136;2022-08-11T17:21:30;3.67;;;1.40;;
4885;SDS011;2457;51.788;6.136;2022-08-11T17:24:03;4.10;;;1.50;;
4885;SDS011;2457;51.788;6.136;2022-08-11T17:26:32;3.20;;;1.50;;
4885;SDS011;2457;51.788;6.136;2022-08-11T17:29:23;3.50;;;1.40;;
4885;SDS011;2457;51.788;6.136;2022-08-11T17:31:46;4.90;;;1.53;;
4885;SDS011;2457;51.788;6.136;2022-08-11T17:34:33;3.93;;;1.60;;
4885;SDS011;2457;51.788;6.136;2022-08-11T17:37:19;3.57;;;1.47;;
4885;SDS011;2457;51.788;6.136;2022-08-11T17:39:46;4.00;;;1.63;;
4885;SDS011;2457;51.788;6.136;2022-08-11T17:42:14;10.83;;;1.70;;
4885;SDS011;2457;51.788;6.136;2022-08-11T17:45:00;3.90;;;1.60;;
4885;SDS011;2457;51.788;6.136;2022-08-11T17:47:47;4.43;;;1.63;;
4885;SDS011;2457;51.788;6.136;2022-08-11T17:50:32;3.63;;;1.40;;
4885;SDS011;2457;51.788;6.136;2022-08-11T17:53:01;16.80;;;1.90;;
4885;SDS011;2457;51.788;6.136;2022-08-11T17:55:47;3.43;;;1.60;;
4885;SDS011;2457;51.788;6.136;2022-08-11T17:58:33;3.90;;;1.40;;
4885;SDS011;2457;51.788;6.136;2022-08-11T18:01:08;3.83;;;1.50;;
4885;SDS011;2457;51.788;6.136;2022-08-11T18:03:37;4.57;;;1.90;;
4885;SDS011;2457;51.788;6.136;2022-08-11T18:06:06;4.30;;;1.53;;
4885;SDS011;2457;51.788;6.136;2022-08-11T18:08:36;3.70;;;1.83;;
4885;SDS011;2457;51.788;6.136;2022-08-11T18:11:23;5.20;;;1.83;;
4885;SDS011;2457;51.788;6.136;2022-08-11T18:14:09;3.80;;;1.60;;
4885;SDS011;2457;51.788;6.136;2022-08-11T18:16:56;8.53;;;2.03;;
4885;SDS011;2457;51.788;6.136;2022-08-11T18:19:41;4.07;;;1.77;;
4885;SDS011;2457;51.788;6.136;2022-08-11T18:22:28;4.57;;;1.80;;
4885;SDS011;2457;51.788;6.136;2022-08-11T18:25:15;3.97;;;1.77;;
4885;SDS011;2457;51.788;6.136;2022-08-11T18:28:01;3.20;;;1.43;;
4885;SDS011;2457;51.788;6.136;2022-08-11T18:30:47;4.70;;;1.70;;
4885;SDS011;2457;51.788;6.136;2022-08-11T18:33:36;3.43;;;1.57;;
4885;SDS011;2457;51.788;6.136;2022-08-11T18:36:22;4.60;;;1.70;;
4885;SDS011;2457;51.788;6.136;2022-08-11T18:39:08;6.43;;;1.80;;
4885;SDS011;2457;51.788;6.136;2022-08-11T18:41:56;4.37;;;1.90;;
4885;SDS011;2457;51.788;6.136;2022-08-11T18:44:42;4.80;;;1.90;;
4885;SDS011;2457;51.788;6.136;2022-08-11T18:47:28;5.63;;;2.10;;
4885;SDS011;2457;51.788;6.136;2022-08-11T18:50:14;3.57;;;1.47;;
4885;SDS011;2457;51.788;6.136;2022-08-11T18:53:00;4.70;;;2.10;;
4885;SDS011;2457;51.788;6.136;2022-08-11T18:55:48;4.77;;;1.83;;
4885;SDS011;2457;51.788;6.136;2022-08-11T18:58:34;5.27;;;1.83;;
4885;SDS011;2457;51.788;6.136;2022-08-11T19:01:20;6.00;;;2.30;;